Time;durP1;ratioP1;P1;durP2;ratioP2;P2;SDS_P1;SDS_P2;PMS_P1;PMS_P2;Temp;Humidity;BMP_temperature;BMP_pressure;BME280_temperature;BME280_humidity;BME280_pressure;Samples;Min_cycle;Max_cycle;Signal;HPM_P1;HPM_P2
2021/12/20 00:01:21;;;;;;;5.88;4.30;;;22.40;30.00;;;;;;5152104;27;20047;-65
2021/12/20 00:03:49;;;;;;;5.32;4.05;;;22.40;30.00;;;;;;5151956;27;20613;-66
2021/12/20 00:06:19;;;;;;;4.63;3.42;;;22.30;30.00;;;;;;5151411;27;20053;-66
2021/12/20 00:08:46;;;;;;;5.63;3.95;;;22.30;30.00;;;;;;5151347;27;20595;-66
2021/12/20 00:11:13;;;;;;;4.70;3.90;;;22.30;30.00;;;;;;5152047;27;20488;-65
2021/12/20 00:13:40;;;;;;;5.50;3.88;;;22.40;30.10;;;;;;5151993;27;20463;-65
2021/12/20 00:16:07;;;;;;;4.35;3.70;;;22.30;30.10;;;;;;5151609;27;20134;-66
2021/12/20 00:18:35;;;;;;;5.57;4.20;;;22.30;30.10;;;;;;5151335;27;20054;-66
2021/12/20 00:21:03;;;;;;;5.45;4.00;;;22.40;30.20;;;;;;5152048;27;20054;-65
2021/12/20 00:23:30;;;;;;;5.13;3.55;;;22.30;30.10;;;;;;5152121;27;20042;-66
2021/12/20 00:25:57;;;;;;;5.60;4.25;;;22.40;30.20;;;;;;5151306;27;20095;-66
2021/12/20 00:28:25;;;;;;;4.22;3.58;;;22.30;30.20;;;;;;5151609;27;20042;-66
2021/12/20 00:30:52;;;;;;;5.00;4.15;;;22.30;30.20;;;;;;5151697;27;20099;-65
2021/12/20 00:33:19;;;;;;;5.03;3.65;;;22.30;30.20;;;;;;5151812;27;20533;-65
2021/12/20 00:35:47;;;;;;;4.80;3.58;;;22.30;30.20;;;;;;5151750;27;20143;-68
2021/12/20 00:41:02;;;;;;;3.83;3.25;;;22.40;30.20;;;;;;5152222;27;20097;-66
2021/12/20 00:43:29;;;;;;;4.82;3.88;;;22.40;30.20;;;;;;5151883;27;20050;-65
2021/12/20 00:45:56;;;;;;;5.47;4.05;;;22.40;30.20;;;;;;5151696;27;20090;-65
2021/12/20 00:48:23;;;;;;;4.90;3.38;;;22.40;30.20;;;;;;5151026;27;20543;-65
2021/12/20 00:50:51;;;;;;;4.85;3.85;;;22.40;30.20;;;;;;5133329;27;20451;-66
2021/12/20 00:53:18;;;;;;;4.82;3.70;;;22.40;30.20;;;;;;5153161;27;20539;-65
2021/12/20 00:55:45;;;;;;;4.68;3.65;;;22.40;30.20;;;;;;5155687;27;20110;-66
2021/12/20 00:58:12;;;;;;;5.00;3.95;;;22.40;30.20;;;;;;5154730;27;20051;-66
2021/12/20 01:00:43;;;;;;;3.40;2.83;;;22.40;30.20;;;;;;5155407;27;20099;-65
2021/12/20 01:03:11;;;;;;;5.47;3.72;;;22.40;30.20;;;;;;5155884;27;20135;-65
2021/12/20 01:05:40;;;;;;;3.97;3.15;;;22.40;30.20;;;;;;5155872;27;20150;-65
2021/12/20 01:08:08;;;;;;;3.67;3.13;;;22.40;30.20;;;;;;5154741;27;20047;-66
2021/12/20 01:10:38;;;;;;;5.07;3.60;;;22.40;30.20;;;;;;5155238;27;20046;-65
2021/12/20 01:13:06;;;;;;;4.32;3.35;;;22.40;30.20;;;;;;5133771;27;20043;-66
2021/12/20 01:15:47;;;;;;;4.57;3.42;;;22.40;30.20;;;;;;5132968;27;20047;-66
2021/12/20 01:18:15;;;;;;;4.10;3.03;;;22.40;30.30;;;;;;5154554;27;20087;-65
2021/12/20 01:20:43;;;;;;;5.72;4.03;;;22.40;30.30;;;;;;5154913;27;20047;-66
2021/12/20 01:23:11;;;;;;;3.78;3.13;;;22.40;30.30;;;;;;5155646;27;20042;-66
2021/12/20 01:25:40;;;;;;;3.53;3.13;;;22.30;30.30;;;;;;5136824;27;20092;-65
2021/12/20 01:28:09;;;;;;;4.50;3.25;;;22.40;30.30;;;;;;5153969;27;20042;-66
2021/12/20 01:30:37;;;;;;;3.83;2.85;;;22.40;30.40;;;;;;5155021;27;20082;-65
2021/12/20 01:33:11;;;;;;;4.40;3.30;;;22.40;30.90;;;;;;5155132;27;20042;-66
2021/12/20 01:35:39;;;;;;;3.38;2.67;;;22.40;30.30;;;;;;5154743;27;20054;-65
2021/12/20 01:38:07;;;;;;;4.35;3.45;;;22.30;30.30;;;;;;5135897;27;20100;-65
2021/12/20 01:40:35;;;;;;;4.85;3.42;;;22.40;30.30;;;;;;5155046;27;20047;-65
2021/12/20 01:43:04;;;;;;;4.65;2.95;;;22.30;30.90;;;;;;5154615;27;20047;-66
2021/12/20 01:45:32;;;;;;;3.90;2.90;;;22.30;30.30;;;;;;5155522;27;20109;-65
2021/12/20 01:48:06;;;;;;;4.28;3.10;;;22.30;30.30;;;;;;5154343;27;20072;-65
2021/12/20 01:50:48;;;;;;;3.35;2.83;;;22.30;30.30;;;;;;5154830;27;20039;-65
2021/12/20 01:53:19;;;;;;;3.90;3.20;;;22.30;30.30;;;;;;5155098;27;20054;-66
2021/12/20 01:55:48;;;;;;;3.70;3.20;;;22.30;30.30;;;;;;5154361;27;20082;-66
2021/12/20 01:58:15;;;;;;;3.45;2.92;;;22.30;30.40;;;;;;5153805;27;20046;-65
2021/12/20 02:01:18;;;;;;;3.67;2.58;;;22.30;30.30;;;;;;5153675;27;20134;-65
2021/12/20 02:03:32;;;;;;;3.75;2.88;;;22.30;30.40;;;;;;5154323;27;20050;-65
2021/12/20 02:06:03;;;;;;;3.20;2.90;;;22.30;30.40;;;;;;5153965;27;20047;-65
2021/12/20 02:08:30;;;;;;;2.72;2.45;;;22.30;30.40;;;;;;5153840;27;20091;-65
2021/12/20 02:11:05;;;;;;;3.10;2.65;;;22.30;30.40;;;;;;5154481;27;20425;-66
2021/12/20 02:13:34;;;;;;;3.10;2.45;;;22.30;30.40;;;;;;5154442;27;20095;-65
2021/12/20 02:16:01;;;;;;;3.78;2.75;;;22.30;30.40;;;;;;5154364;27;20142;-65
2021/12/20 02:18:29;;;;;;;3.25;2.40;;;22.30;30.40;;;;;;5153613;27;20047;-65
2021/12/20 02:20:57;;;;;;;2.42;2.22;;;22.30;30.40;;;;;;5153670;27;20097;-65
2021/12/20 02:23:25;;;;;;;3.13;2.47;;;22.30;30.40;;;;;;5154398;27;20042;-65
2021/12/20 02:25:52;;;;;;;2.90;2.60;;;22.30;30.50;;;;;;5135401;27;20426;-65
2021/12/20 02:28:22;;;;;;;3.38;2.67;;;22.30;30.50;;;;;;5153418;27;20556;-65
2021/12/20 02:39:07;;;;;;;3.63;2.65;;;22.30;30.40;;;;;;5154341;27;20047;-67
2021/12/20 02:41:34;;;;;;;2.67;2.15;;;22.30;31.00;;;;;;5153369;27;20046;-66
2021/12/20 02:44:11;;;;;;;3.05;2.33;;;22.30;30.40;;;;;;5154181;27;20111;-65
2021/12/20 02:46:51;;;;;;;2.42;2.22;;;22.30;30.40;;;;;;5152835;27;20042;-66
2021/12/20 02:49:20;;;;;;;2.75;2.22;;;22.30;30.40;;;;;;5154089;27;20046;-66
2021/12/20 02:51:50;;;;;;;2.92;2.60;;;22.30;30.40;;;;;;5153754;27;20107;-66
2021/12/20 02:54:20;;;;;;;3.50;2.47;;;22.30;30.40;;;;;;5153533;27;20103;-66
2021/12/20 02:56:48;;;;;;;3.22;2.53;;;22.30;30.40;;;;;;5152472;27;20066;-66
2021/12/20 02:59:17;;;;;;;2.15;1.85;;;22.30;30.40;;;;;;5153770;27;20042;-65
2021/12/20 03:01:50;;;;;;;2.63;2.22;;;22.30;30.40;;;;;;5152714;27;20138;-65
2021/12/20 03:04:17;;;;;;;2.60;2.40;;;22.30;30.40;;;;;;5153815;27;20399;-65
2021/12/20 03:06:48;;;;;;;2.05;1.83;;;22.30;30.50;;;;;;5152499;27;20403;-65
2021/12/20 03:09:18;;;;;;;2.47;1.98;;;22.30;30.50;;;;;;5153351;27;20471;-66
2021/12/20 03:11:48;;;;;;;3.15;2.22;;;22.30;30.50;;;;;;5152761;27;20047;-65
2021/12/20 03:14:29;;;;;;;3.53;2.42;;;22.30;30.50;;;;;;5153477;27;20091;-66
2021/12/20 03:16:57;;;;;;;2.13;1.90;;;22.30;30.50;;;;;;5151660;27;20078;-65
2021/12/20 03:19:26;;;;;;;2.58;2.20;;;22.20;30.50;;;;;;5152954;27;20448;-65
2021/12/20 03:21:53;;;;;;;2.65;1.80;;;22.20;30.50;;;;;;5152700;27;20092;-65
2021/12/20 03:24:21;;;;;;;2.70;2.03;;;22.20;30.50;;;;;;5152950;27;20047;-66
2021/12/20 03:26:48;;;;;;;2.08;1.88;;;22.20;30.50;;;;;;5151958;27;20107;-65
2021/12/20 03:29:15;;;;;;;2.08;1.70;;;22.20;30.60;;;;;;5152777;27;20054;-68
2021/12/20 03:31:42;;;;;;;3.15;2.10;;;22.20;30.50;;;;;;5152664;27;20240;-65
2021/12/20 03:34:10;;;;;;;2.55;2.13;;;22.20;30.60;;;;;;5152745;27;20093;-65
2021/12/20 03:36:38;;;;;;;1.85;1.75;;;22.20;30.50;;;;;;5150858;27;20095;-66
2021/12/20 03:39:07;;;;;;;2.08;1.88;;;22.20;30.50;;;;;;5152582;27;20055;-66
2021/12/20 03:41:34;;;;;;;2.38;1.63;;;22.20;30.40;;;;;;5152142;27;20088;-66
2021/12/20 03:44:03;;;;;;;3.30;2.33;;;22.20;30.40;;;;;;5152422;27;20091;-65
2021/12/20 03:46:30;;;;;;;2.13;1.92;;;22.20;30.30;;;;;;5132746;27;20078;-65
2021/12/20 03:48:57;;;;;;;2.05;1.73;;;22.20;30.30;;;;;;5152491;27;20042;-65
2021/12/20 03:51:25;;;;;;;1.52;1.42;;;22.20;30.40;;;;;;5152259;27;20054;-65
2021/12/20 03:53:52;;;;;;;2.00;1.70;;;22.20;30.40;;;;;;5152335;27;20047;-65
2021/12/20 03:56:19;;;;;;;3.15;1.88;;;22.20;30.30;;;;;;5151298;27;20086;-69
2021/12/20 03:58:46;;;;;;;2.33;1.98;;;22.20;30.30;;;;;;5152460;27;20042;-65
2021/12/20 04:01:13;;;;;;;1.98;1.50;;;22.20;30.30;;;;;;5151496;27;20068;-65
2021/12/20 04:11:31;;;;;;;1.48;1.30;;;22.10;30.30;;;;;;5152085;27;20107;-65
2021/12/20 04:13:58;;;;;;;1.55;1.23;;;22.10;30.30;;;;;;5151945;27;20042;-65
2021/12/20 04:16:26;;;;;;;1.67;1.58;;;22.10;30.30;;;;;;5151383;27;20147;-66
2021/12/20 04:18:53;;;;;;;1.35;1.25;;;22.10;30.30;;;;;;5133649;27;20123;-65
2021/12/20 04:21:20;;;;;;;1.88;1.50;;;22.10;30.30;;;;;;5133831;27;20110;-65
2021/12/20 04:23:48;;;;;;;1.60;1.23;;;22.10;30.30;;;;;;5152030;27;20403;-66
2021/12/20 04:26:15;;;;;;;1.67;1.58;;;22.10;30.30;;;;;;5151501;27;20439;-65
2021/12/20 04:28:42;;;;;;;1.48;1.15;;;22.10;30.30;;;;;;5153882;27;20047;-66
2021/12/20 04:31:09;;;;;;;2.00;1.60;;;22.20;30.30;;;;;;5156505;27;20533;-65
2021/12/20 04:33:37;;;;;;;1.80;1.58;;;22.10;30.30;;;;;;5156341;27;20042;-66
2021/12/20 04:36:04;;;;;;;1.60;1.40;;;22.20;30.30;;;;;;5152293;27;20074;-65
2021/12/20 04:38:32;;;;;;;1.55;1.40;;;22.20;30.30;;;;;;5133102;27;20491;-66
2021/12/20 04:41:00;;;;;;;1.50;1.40;;;22.20;30.30;;;;;;5135506;27;20066;-65
2021/12/20 04:43:28;;;;;;;1.77;1.38;;;22.20;30.30;;;;;;5134920;27;20100;-66
2021/12/20 04:45:55;;;;;;;1.73;1.50;;;22.20;30.30;;;;;;5135060;27;20051;-65
2021/12/20 04:48:22;;;;;;;1.13;1.10;;;22.20;30.30;;;;;;5096421;28;20039;-66
2021/12/20 04:50:49;;;;;;;3.55;1.73;;;22.20;30.30;;;;;;5114592;28;20047;-66
2021/12/20 04:53:17;;;;;;;1.50;1.40;;;22.20;30.30;;;;;;5114595;28;20243;-65
2021/12/20 04:55:44;;;;;;;1.95;1.48;;;22.20;30.40;;;;;;5114352;28;20086;-66
2021/12/20 04:58:12;;;;;;;1.83;1.65;;;22.10;30.30;;;;;;5113439;28;20397;-66
2021/12/20 05:00:43;;;;;;;2.85;1.50;;;22.10;30.30;;;;;;5114169;28;20535;-66
2021/12/20 05:03:11;;;;;;;1.50;1.40;;;22.20;30.40;;;;;;5095996;28;20105;-65
2021/12/20 05:05:39;;;;;;;1.50;1.40;;;22.10;30.40;;;;;;5114179;28;20158;-65
2021/12/20 05:08:06;;;;;;;1.02;1.00;;;22.10;30.40;;;;;;5127304;27;20096;-66
2021/12/20 05:10:34;;;;;;;1.15;1.15;;;22.10;30.40;;;;;;5134576;27;20044;-66
2021/12/20 05:13:05;;;;;;;1.20;1.10;;;22.10;30.40;;;;;;5134663;27;20126;-65
2021/12/20 05:15:33;;;;;;;1.45;1.30;;;22.10;30.40;;;;;;5116698;27;20483;-68
2021/12/20 05:18:01;;;;;;;1.30;1.00;;;22.10;30.40;;;;;;5133533;27;20051;-65
2021/12/20 05:20:28;;;;;;;1.30;1.17;;;22.10;30.40;;;;;;5134518;27;20085;-65
2021/12/20 05:22:56;;;;;;;0.80;0.80;;;22.10;30.40;;;;;;5115874;27;20047;-65
2021/12/20 05:25:24;;;;;;;1.45;1.10;;;22.10;30.40;;;;;;5133844;27;20047;-65
2021/12/20 05:27:52;;;;;;;1.38;1.20;;;22.10;30.40;;;;;;5117823;27;20097;-65
2021/12/20 05:30:20;;;;;;;1.85;1.48;;;22.10;30.40;;;;;;5113318;28;20051;-65
2021/12/20 05:32:48;;;;;;;1.00;0.82;;;22.10;30.40;;;;;;5114195;28;20051;-66
2021/12/20 05:35:17;;;;;;;1.33;1.23;;;22.10;30.40;;;;;;5113439;28;20484;-65
2021/12/20 05:37:45;;;;;;;1.00;0.90;;;22.10;30.40;;;;;;5112356;28;20093;-65
2021/12/20 05:40:13;;;;;;;1.15;1.02;;;22.10;30.40;;;;;;5112713;28;20048;-65
2021/12/20 05:42:41;;;;;;;1.10;1.00;;;22.10;30.40;;;;;;5113417;28;20051;-65
2021/12/20 05:45:09;;;;;;;2.22;1.55;;;22.10;30.50;;;;;;5113483;28;20052;-65
2021/12/20 05:47:36;;;;;;;0.93;0.85;;;22.10;30.40;;;;;;5092065;27;20438;-65
2021/12/20 05:50:05;;;;;;;1.05;0.88;;;22.10;30.40;;;;;;5134310;27;20074;-65
2021/12/20 05:52:32;;;;;;;1.38;1.27;;;22.10;30.40;;;;;;5133915;27;20082;-65
2021/12/20 05:55:00;;;;;;;0.85;0.85;;;22.10;30.40;;;;;;5133111;27;20055;-65
2021/12/20 05:57:27;;;;;;;0.90;0.90;;;22.10;30.40;;;;;;5132054;27;20051;-65
2021/12/20 05:59:54;;;;;;;1.27;1.20;;;22.10;30.40;;;;;;5133406;27;20054;-65
2021/12/20 06:02:21;;;;;;;1.50;1.30;;;22.10;30.40;;;;;;5133518;27;20100;-65
2021/12/20 06:04:50;;;;;;;1.23;1.10;;;22.10;30.40;;;;;;5133412;27;20047;-65
2021/12/20 06:07:19;;;;;;;1.05;0.85;;;22.10;30.40;;;;;;5131117;27;20100;-66
2021/12/20 06:09:47;;;;;;;0.95;0.95;;;22.10;30.30;;;;;;5131709;27;20076;-70
2021/12/20 06:12:15;;;;;;;1.02;0.90;;;22.10;30.90;;;;;;5131933;27;20560;-67
2021/12/20 06:14:42;;;;;;;0.70;0.70;;;22.10;30.90;;;;;;5132342;27;20154;-69
2021/12/20 06:17:09;;;;;;;0.77;0.77;;;22.10;31.40;;;;;;5127722;27;20096;-67
2021/12/20 06:19:36;;;;;;;1.55;1.05;;;22.20;31.00;;;;;;5114721;27;20051;-66
2021/12/20 06:22:04;;;;;;;0.95;0.85;;;22.20;31.00;;;;;;5133204;27;20392;-65
2021/12/20 06:24:31;;;;;;;0.90;0.80;;;22.20;31.00;;;;;;5131433;27;20522;-65
2021/12/20 06:26:59;;;;;;;1.10;0.93;;;22.20;31.10;;;;;;5126434;27;20270;-65
2021/12/20 06:29:26;;;;;;;0.75;0.60;;;22.20;31.30;;;;;;5131890;27;20404;-66
2021/12/20 06:31:53;;;;;;;1.08;0.93;;;22.30;31.30;;;;;;5131752;27;20051;-65
2021/12/20 06:34:21;;;;;;;2.13;0.70;;;22.20;31.40;;;;;;5130739;27;20089;-65
2021/12/20 06:36:48;;;;;;;0.73;0.60;;;22.30;31.50;;;;;;5127577;27;20086;-65
2021/12/20 06:39:16;;;;;;;0.57;0.57;;;22.30;31.50;;;;;;5131545;27;20043;-67
2021/12/20 06:41:44;;;;;;;0.85;0.70;;;22.30;31.60;;;;;;5130861;27;20104;-67
2021/12/20 06:44:11;;;;;;;1.05;0.82;;;22.30;31.70;;;;;;5113057;27;20054;-67
2021/12/20 06:46:43;;;;;;;1.10;0.50;;;22.30;31.40;;;;;;5123581;27;20545;-67
2021/12/20 06:49:11;;;;;;;0.50;0.50;;;22.40;31.40;;;;;;5126740;27;20093;-66
2021/12/20 06:51:43;;;;;;;0.47;0.47;;;22.40;31.20;;;;;;5118486;27;20038;-67
2021/12/20 06:58:28;;;;;;;1.15;0.90;;;22.40;30.90;;;;;;5129778;27;20490;-65
2021/12/20 07:00:55;;;;;;;1.33;0.95;;;22.40;30.70;;;;;;5102635;27;20082;-66
2021/12/20 07:03:23;;;;;;;1.13;1.02;;;22.50;30.70;;;;;;5128421;27;20086;-65
2021/12/20 07:05:50;;;;;;;1.08;1.05;;;22.50;30.60;;;;;;5129443;27;20075;-67
2021/12/20 07:08:17;;;;;;;0.73;0.73;;;22.50;30.70;;;;;;5129695;27;20112;-64
2021/12/20 07:10:45;;;;;;;1.13;1.10;;;22.60;30.80;;;;;;5129180;27;20112;-66
2021/12/20 07:13:12;;;;;;;1.70;0.95;;;22.60;30.70;;;;;;5127593;27;20419;-64
2021/12/20 07:15:39;;;;;;;1.30;1.00;;;22.70;30.60;;;;;;5130428;27;20101;-65
2021/12/20 07:18:06;;;;;;;0.90;0.90;;;22.70;30.60;;;;;;5130783;27;20093;-65
2021/12/20 07:20:34;;;;;;;0.75;0.68;;;22.70;30.50;;;;;;5130616;27;20057;-66
2021/12/20 07:23:01;;;;;;;0.60;0.60;;;22.70;30.40;;;;;;5110731;27;20046;-66
2021/12/20 07:25:28;;;;;;;1.02;0.93;;;22.80;30.40;;;;;;5129686;27;20423;-66
2021/12/20 07:27:55;;;;;;;0.73;0.73;;;22.80;30.30;;;;;;5129721;27;20047;-66
2021/12/20 07:30:23;;;;;;;0.70;0.70;;;22.80;30.30;;;;;;5112072;27;20047;-66
2021/12/20 07:32:50;;;;;;;0.43;0.43;;;22.90;30.30;;;;;;5126818;27;20047;-65
2021/12/20 07:35:19;;;;;;;1.33;1.02;;;22.90;30.20;;;;;;5121133;27;20504;-66
2021/12/20 07:37:47;;;;;;;0.77;0.77;;;22.90;30.20;;;;;;5121444;27;20050;-65
2021/12/20 07:40:16;;;;;;;1.38;1.00;;;23.00;30.10;;;;;;5120308;27;20488;-64
2021/12/20 07:42:44;;;;;;;1.00;0.90;;;23.00;30.30;;;;;;5121271;27;20054;-65
2021/12/20 07:45:11;;;;;;;0.68;0.68;;;23.10;30.30;;;;;;5124651;27;20050;-63
2021/12/20 07:47:48;;;;;;;0.90;0.90;;;23.10;30.30;;;;;;5127830;27;20054;-64
2021/12/20 07:50:16;;;;;;;1.42;0.98;;;23.20;30.40;;;;;;5122627;27;20040;-64
2021/12/20 07:52:44;;;;;;;1.65;1.00;;;23.20;30.30;;;;;;5109457;27;20096;-65
2021/12/20 07:55:11;;;;;;;0.68;0.68;;;23.30;30.30;;;;;;5100021;27;20047;-64
2021/12/20 07:57:39;;;;;;;1.10;0.95;;;23.30;30.20;;;;;;5125385;27;20039;-65
2021/12/20 08:00:11;;;;;;;1.42;0.70;;;23.30;30.20;;;;;;5126470;27;20727;-65
2021/12/20 08:02:38;;;;;;;1.27;0.65;;;23.40;30.20;;;;;;5121191;27;20419;-64
2021/12/20 08:05:06;;;;;;;0.60;0.60;;;23.50;30.10;;;;;;5110884;27;20071;-64
2021/12/20 08:07:33;;;;;;;0.70;0.70;;;23.50;30.10;;;;;;5134907;27;20096;-65
2021/12/20 08:10:01;;;;;;;0.73;0.73;;;23.60;30.10;;;;;;5137287;27;20445;-65
2021/12/20 08:12:28;;;;;;;0.60;0.57;;;23.60;30.00;;;;;;5124417;27;20137;-63
2021/12/20 08:14:55;;;;;;;1.88;0.73;;;23.70;30.00;;;;;;5123459;27;20046;-64
2021/12/20 08:17:22;;;;;;;1.63;0.60;;;23.70;30.00;;;;;;5123181;27;20096;-63
2021/12/20 08:19:49;;;;;;;0.80;0.80;;;23.80;30.00;;;;;;5128397;27;20133;-63
2021/12/20 08:26:09;;;;;;;;;;;23.80;29.80;;;;;;5121351;27;20092;-66
2021/12/20 08:28:36;;;;;;;0.75;0.50;;;23.90;29.70;;;;;;5128331;28;19973;-64
2021/12/20 08:31:05;;;;;;;1.75;0.70;;;23.90;29.60;;;;;;5126624;28;20120;-65
2021/12/20 08:33:32;;;;;;;0.98;0.68;;;23.90;29.50;;;;;;5128328;28;20069;-64
2021/12/20 08:36:02;;;;;;;1.65;1.00;;;24.00;29.50;;;;;;5110145;28;20048;-64
2021/12/20 08:38:29;;;;;;;1.57;1.00;;;24.00;29.60;;;;;;5128625;27;20047;-64
2021/12/20 08:41:00;;;;;;;0.60;0.60;;;24.00;29.60;;;;;;5127838;28;20043;-65
2021/12/20 08:43:28;;;;;;;1.73;0.70;;;24.00;29.60;;;;;;5128562;28;20092;-65
2021/12/20 08:45:59;;;;;;;1.50;1.05;;;24.10;29.50;;;;;;5129072;28;20039;-66
2021/12/20 08:48:26;;;;;;;1.98;1.02;;;24.10;29.50;;;;;;5125647;27;20128;-65
2021/12/20 08:50:54;;;;;;;2.08;0.98;;;24.10;29.50;;;;;;5119292;27;20043;-65
2021/12/20 08:53:21;;;;;;;2.47;0.68;;;24.10;29.40;;;;;;5093340;28;20055;-65
2021/12/20 08:55:48;;;;;;;0.82;0.60;;;24.10;29.30;;;;;;5082719;27;20088;-65
2021/12/20 08:58:15;;;;;;;1.35;1.10;;;24.20;29.30;;;;;;5111354;28;20047;-66
2021/12/20 09:00:43;;;;;;;0.50;0.50;;;24.20;29.20;;;;;;5123898;27;20051;-63
2021/12/20 09:03:10;;;;;;;0.60;0.52;;;24.20;29.10;;;;;;5111328;27;20134;-64
2021/12/20 09:05:37;;;;;;;0.65;0.65;;;24.30;29.10;;;;;;5106949;28;20048;-65
2021/12/20 09:08:06;;;;;;;0.45;0.40;;;24.30;29.20;;;;;;5121918;28;20149;-64
2021/12/20 09:10:34;;;;;;;1.15;0.50;;;24.30;29.20;;;;;;5126490;27;20051;-64
2021/12/20 09:13:03;;;;;;;0.57;0.50;;;24.30;29.20;;;;;;5124907;27;20043;-65
2021/12/20 09:15:31;;;;;;;1.45;0.85;;;24.40;29.10;;;;;;5132247;27;20047;-65
2021/12/20 09:17:58;;;;;;;1.23;0.68;;;24.40;29.00;;;;;;5114901;27;20514;-65
2021/12/20 09:20:27;;;;;;;1.13;0.65;;;24.40;29.00;;;;;;5128704;27;20537;-66
2021/12/20 09:23:03;;;;;;;0.98;0.50;;;24.40;29.10;;;;;;5129918;27;20046;-65
2021/12/20 09:25:31;;;;;;;0.93;0.63;;;24.40;29.00;;;;;;5132602;27;20047;-65
2021/12/20 09:28:00;;;;;;;2.10;0.80;;;24.40;29.00;;;;;;5132740;27;20487;-64
2021/12/20 09:30:29;;;;;;;2.40;0.70;;;24.40;28.90;;;;;;5131939;27;20051;-63
2021/12/20 09:33:00;;;;;;;0.95;0.60;;;24.40;28.80;;;;;;5129894;27;20057;-65
2021/12/20 09:35:28;;;;;;;1.95;1.10;;;24.50;28.80;;;;;;5133162;27;20039;-65
2021/12/20 09:37:55;;;;;;;1.52;0.57;;;24.40;28.60;;;;;;5132820;27;20051;-66
2021/12/20 09:40:34;;;;;;;2.83;0.90;;;24.50;28.60;;;;;;5132647;27;20055;-67
2021/12/20 09:43:08;;;;;;;1.10;0.63;;;24.40;28.60;;;;;;5129340;27;20098;-66
2021/12/20 09:45:36;;;;;;;0.95;0.60;;;24.40;28.60;;;;;;5130696;27;20104;-65
2021/12/20 09:48:04;;;;;;;0.80;0.60;;;24.50;28.80;;;;;;5113806;27;20058;-64
2021/12/20 09:50:32;;;;;;;2.38;1.38;;;24.50;28.80;;;;;;5132558;27;20116;-67
2021/12/20 09:53:07;;;;;;;3.58;1.00;;;24.50;28.60;;;;;;5132143;27;20050;-67
2021/12/20 09:55:35;;;;;;;1.52;0.55;;;24.50;27.30;;;;;;5132390;27;20047;-67
2021/12/20 09:58:04;;;;;;;1.27;0.77;;;24.40;26.60;;;;;;5127052;27;21231;-66
2021/12/20 10:00:33;;;;;;;2.08;0.50;;;24.30;27.10;;;;;;5122247;27;20042;-67
2021/12/20 10:03:01;;;;;;;2.00;0.68;;;24.30;27.30;;;;;;5127288;27;20145;-64
2021/12/20 10:05:28;;;;;;;0.80;0.40;;;24.30;27.90;;;;;;5123760;27;20039;-71
2021/12/20 10:07:58;;;;;;;1.38;0.40;;;24.30;27.70;;;;;;5124274;27;20448;-70
2021/12/20 10:10:42;;;;;;;0.63;0.50;;;24.40;27.80;;;;;;5123956;27;20089;-64
2021/12/20 10:13:21;;;;;;;2.35;0.70;;;24.40;28.00;;;;;;5124641;27;20078;-65
2021/12/20 10:15:49;;;;;;;0.85;0.35;;;24.40;28.00;;;;;;5119277;27;20043;-65
2021/12/20 10:18:17;;;;;;;0.80;0.73;;;24.40;27.80;;;;;;5118724;27;20089;-65
2021/12/20 10:20:56;;;;;;;1.67;0.70;;;24.40;27.80;;;;;;5123175;27;20134;-67
2021/12/20 10:23:29;;;;;;;0.45;0.30;;;24.50;28.00;;;;;;5102685;27;20051;-67
2021/12/20 10:26:16;;;;;;;0.90;0.40;;;24.40;27.80;;;;;;5123463;27;20066;-66
2021/12/20 10:28:44;;;;;;;2.60;0.88;;;24.50;27.90;;;;;;5122522;27;20043;-67
2021/12/20 10:31:21;;;;;;;0.77;0.60;;;24.50;27.80;;;;;;5124577;27;20491;-66
2021/12/20 10:34:01;;;;;;;0.90;0.57;;;24.50;27.60;;;;;;5124357;27;20055;-63
2021/12/20 10:36:31;;;;;;;0.68;0.47;;;24.50;27.70;;;;;;5120645;27;20126;-63
2021/12/20 10:39:01;;;;;;;2.35;0.25;;;24.50;27.60;;;;;;5118936;27;20138;-71
2021/12/20 10:41:36;;;;;;;0.47;0.40;;;24.50;27.50;;;;;;5122237;27;20085;-63
2021/12/20 10:44:15;;;;;;;0.45;0.45;;;24.50;27.50;;;;;;5121525;27;21545;-66
2021/12/20 10:46:52;;;;;;;0.98;0.60;;;24.60;27.70;;;;;;5105220;27;20073;-67
2021/12/20 10:49:28;;;;;;;1.30;0.57;;;24.60;27.80;;;;;;5125894;27;20078;-65
2021/12/20 10:51:56;;;;;;;1.10;0.82;;;24.60;27.70;;;;;;5123466;27;20039;-65
2021/12/20 10:54:30;;;;;;;0.57;0.35;;;24.60;27.60;;;;;;5121876;27;20035;-64
2021/12/20 10:57:01;;;;;;;0.52;0.43;;;24.60;27.60;;;;;;5123996;27;20495;-66
2021/12/20 10:59:31;;;;;;;1.10;0.43;;;24.60;27.60;;;;;;5124067;27;20047;-67
2021/12/20 11:04:57;;;;;;;1.10;0.43;;;24.70;27.60;;;;;;5128362;27;20043;-66
2021/12/20 11:10:08;;;;;;;0.50;0.40;;;24.70;27.80;;;;;;5122631;27;20043;-69
2021/12/20 11:12:36;;;;;;;1.30;0.52;;;24.70;27.80;;;;;;5124177;27;20039;-69
2021/12/20 11:16:07;;;;;;;0.85;0.50;;;24.60;27.70;;;;;;5129821;27;20055;-66
2021/12/20 11:18:34;;;;;;;1.63;0.57;;;24.60;27.60;;;;;;5130815;27;20081;-67
2021/12/20 11:21:12;;;;;;;0.60;0.45;;;24.50;27.60;;;;;;5127367;27;20050;-67
2021/12/20 11:23:39;;;;;;;1.17;0.50;;;24.50;27.50;;;;;;5129650;27;20055;-67
2021/12/20 11:26:07;;;;;;;0.55;0.43;;;24.50;27.50;;;;;;5129102;27;20096;-68
2021/12/20 11:28:35;;;;;;;1.20;0.82;;;24.50;27.40;;;;;;5112116;27;20043;-65
2021/12/20 11:31:04;;;;;;;1.02;0.38;;;24.40;27.40;;;;;;5124273;27;20075;-66
2021/12/20 11:33:31;;;;;;;0.50;0.40;;;24.40;27.30;;;;;;5129984;27;20077;-67
2021/12/20 11:35:59;;;;;;;1.48;0.70;;;24.30;27.30;;;;;;5130482;27;20047;-67
2021/12/20 11:38:27;;;;;;;5.43;0.80;;;24.30;27.60;;;;;;5130848;27;20047;-66
2021/12/20 11:40:55;;;;;;;2.10;0.50;;;24.30;28.10;;;;;;5127767;27;20038;-65
2021/12/20 11:43:22;;;;;;;10.95;0.88;;;24.30;28.80;;;;;;5128832;27;20499;-68
2021/12/20 11:45:50;;;;;;;1.15;0.50;;;24.30;29.10;;;;;;5130406;27;20039;-67
2021/12/20 11:48:21;;;;;;;0.43;0.43;;;24.30;29.20;;;;;;5110919;27;20051;-65
2021/12/20 11:50:55;;;;;;;1.00;0.57;;;24.30;28.80;;;;;;5123290;27;20054;-63
2021/12/20 11:53:23;;;;;;;0.85;0.40;;;24.30;28.50;;;;;;5129333;27;20104;-68
2021/12/20 11:55:54;;;;;;;1.77;0.63;;;24.30;28.40;;;;;;5129937;27;20065;-66
2021/12/20 11:58:31;;;;;;;2.42;0.70;;;24.30;28.10;;;;;;5129819;27;20635;-64
2021/12/20 12:01:00;;;;;;;0.57;0.50;;;24.30;28.10;;;;;;5126575;27;20171;-66
2021/12/20 12:03:31;;;;;;;0.93;0.30;;;24.30;28.10;;;;;;5129467;27;20046;-68
2021/12/20 12:06:00;;;;;;;;;;;24.20;28.00;;;;;;5130218;27;20058;-69
2021/12/20 12:08:56;;;;;;;0.30;0.30;;;24.30;28.00;;;;;;5129881;27;19950;-67
2021/12/20 12:11:41;;;;;;;4.75;0.60;;;24.30;28.00;;;;;;5124834;27;20047;-67
2021/12/20 12:14:20;;;;;;;1.83;0.47;;;24.30;28.00;;;;;;5129529;27;20051;-64
2021/12/20 12:17:02;;;;;;;1.55;0.40;;;24.30;27.80;;;;;;5129393;27;20116;-66
2021/12/20 12:19:43;;;;;;;0.60;0.40;;;24.30;27.70;;;;;;5129935;27;20047;-67
2021/12/20 12:22:32;;;;;;;1.08;0.40;;;24.30;27.40;;;;;;5122799;27;20047;-70
2021/12/20 12:24:59;;;;;;;2.47;0.40;;;24.20;27.20;;;;;;5114588;27;20525;-66
2021/12/20 12:27:32;;;;;;;1.58;0.47;;;24.20;27.10;;;;;;5128576;28;20495;-64
2021/12/20 12:30:27;;;;;;;1.13;0.40;;;24.10;27.00;;;;;;5130516;28;20104;-64
2021/12/20 12:33:16;;;;;;;0.38;0.30;;;24.10;27.00;;;;;;5115337;28;20089;-68
2021/12/20 12:35:49;;;;;;;2.50;0.43;;;24.00;27.10;;;;;;5114959;28;20051;-67
2021/12/20 12:38:26;;;;;;;1.75;0.52;;;24.00;27.00;;;;;;5127063;28;20043;-68
2021/12/20 12:41:21;;;;;;;0.65;0.35;;;24.00;27.00;;;;;;5129132;28;20044;-67
2021/12/20 12:44:05;;;;;;;0.80;0.32;;;23.90;27.00;;;;;;5113879;27;20039;-69
2021/12/20 12:46:53;;;;;;;1.75;0.50;;;23.90;27.00;;;;;;5124478;28;20047;-67
2021/12/20 12:49:36;;;;;;;0.88;0.22;;;23.90;27.00;;;;;;5126497;27;20047;-69
2021/12/20 12:52:31;;;;;;;4.78;1.17;;;23.90;26.90;;;;;;5125121;27;20563;-70
2021/12/20 12:55:14;;;;;;;0.73;0.40;;;23.80;26.80;;;;;;5124922;27;20035;-69
2021/12/20 12:57:43;;;;;;;1.42;0.20;;;23.80;26.90;;;;;;5145205;27;20248;-69
2021/12/20 13:00:14;;;;;;;0.30;0.30;;;23.80;26.90;;;;;;5132304;27;20508;-65
2021/12/20 13:02:44;;;;;;;0.88;0.50;;;23.80;26.80;;;;;;5130504;27;20669;-65
2021/12/20 13:05:22;;;;;;;0.80;0.30;;;23.80;26.80;;;;;;5125026;27;20035;-66
2021/12/20 13:08:02;;;;;;;0.30;0.25;;;23.70;26.80;;;;;;5129034;27;20100;-69
2021/12/20 13:10:39;;;;;;;1.23;0.30;;;23.70;26.80;;;;;;5127619;27;20126;-67
2021/12/20 13:13:19;;;;;;;0.30;0.20;;;23.70;26.80;;;;;;5129523;27;20072;-65
2021/12/20 13:15:54;;;;;;;0.20;0.20;;;23.70;26.80;;;;;;5111797;27;20053;-70
2021/12/20 13:18:34;;;;;;;3.70;0.32;;;23.70;26.80;;;;;;5113320;27;20047;-71
2021/12/20 13:21:05;;;;;;;1.48;0.40;;;23.70;26.80;;;;;;5126361;27;20043;-70
2021/12/20 13:23:39;;;;;;;1.13;0.30;;;23.70;26.70;;;;;;5126326;27;20055;-69
2021/12/20 13:26:11;;;;;;;0.73;0.40;;;23.70;26.70;;;;;;5123575;27;20437;-70
2021/12/20 13:28:40;;;;;;;1.65;0.45;;;23.60;26.70;;;;;;5132455;27;20105;-70
2021/12/20 13:31:17;;;;;;;0.47;0.30;;;23.60;26.70;;;;;;5120569;27;20373;-70
2021/12/20 13:33:59;;;;;;;0.50;0.40;;;23.60;26.70;;;;;;5125935;27;20104;-76
2021/12/20 13:36:33;;;;;;;2.28;0.22;;;23.60;26.70;;;;;;5120439;27;20423;-70